Sontag, MS (39665)

03:40 CDT le 01 octobre 2016 (GMT -0500)
Stronghope | | Change Station

Alt. 269 ft 31.72 °N, 90.24 °W | Updated 28 seconds ago

Clear
Ciel dégagé
56.1 ° F
Paraît 56.1 ° F
N
0.0
Vent Variable Vent de NNO
Gusts 0.0 mph

Aujourd'hui
Haut(e) -- | Bas -- ° F
--% Risque de précip.
Hier
Haut(e) -- | Bas -- ° F
Precip. -- pouce
Pression 30.06 pouce
Visibilité 10.0 Miles terrestres
Nuages Ciel dégagé
Point de rosée 55 ° F
Humidité 97%
Précipitations 0.00 pouce
Profondeur de la couche neigeuse Non disponible.
6:54 AM 6:45 PM
Nouvelle lune, 0% visible
METAR KMCB 010753Z AUTO 00000KT 10SM CLR 14/13 A3007 RMK AO2 SLP179 T01440128
Pression 30.06 pouce
Visibilité 10.0 Miles terrestres
Nuages Ciel dégagé
Point de rosée 55 ° F
Humidité 97%
Précipitations 0.00 pouce
Profondeur de la couche neigeuse Non disponible.
6:54 AM 6:45 PM
Nouvelle lune, 0% visible
METAR KMCB 010753Z AUTO 00000KT 10SM CLR 14/13 A3007 RMK AO2 SLP179 T01440128

10-Day Weather Forecast

Almanac

Astronomie

Oct. 01, 2016 Lever Coucher
Temps réel
Crépuscule civil
Crépuscule nautique
Crépuscule astronomique
Lune
Durée de lumière visible
Longueur du jour
Tomorrow will be .
, % of the Moon is Illuminated

Extrêmes aujourd'hui

State Highs State Lows

Community

WunderPhotos

Upload Photos

1,942,898 Photos téléchargées !

WunderBlog® & News

Nearby

Qualité de l'air

  Qualité de l'air Indice de la qualité de l'air Polluant
Not available.

Épaisseur de neige

Station Depth Altitude

Activité sismique

Ville Distance Mag. Time & Date
Minimum magnitude displayed is 2.5.

Températures des eaux côtières

Lieu Température

Stations

Stations météo à proximité

Emplacement de la station Température Refroidissement éolien Point de rosée Humidité Vent Precip. Alt. Mise à jour Type
                   

Watches & Warnings

There are currently no watches in effect.